createdAt,value
2018-03-08T00:01:14.964Z,6.50
2018-03-08T00:03:42.976Z,6.60
2018-03-08T00:06:10.553Z,6.40
2018-03-08T00:08:39.530Z,6.40
2018-03-08T00:11:07.053Z,6.30
2018-03-08T00:23:24.643Z,6.20
2018-03-08T00:25:52.670Z,5.70
2018-03-08T00:28:20.950Z,5.90
2018-03-08T00:30:49.399Z,6.10
2018-03-08T00:33:16.973Z,6.10
2018-03-08T00:35:45.147Z,6.30
2018-03-08T00:51:12.709Z,6.40
2018-03-08T00:53:40.996Z,6.10
2018-03-08T00:56:09.285Z,6.30
2018-03-08T00:58:40.838Z,6.30
2018-03-08T01:01:09.071Z,6.50
2018-03-08T01:03:36.606Z,6.60
2018-03-08T01:06:08.127Z,6.70
2018-03-08T01:08:35.674Z,6.80
2018-03-08T01:11:04.555Z,6.90
2018-03-08T01:13:32.866Z,7.00
2018-03-08T01:29:00.464Z,7.00
2018-03-08T01:31:27.975Z,6.30
2018-03-08T01:33:56.074Z,6.40
2018-03-08T01:36:29.399Z,6.60
2018-03-08T01:38:56.973Z,6.70
2018-03-08T01:41:25.261Z,6.90
2018-03-08T01:43:53.558Z,6.90
2018-03-08T01:46:21.909Z,6.90
2018-03-08T01:48:50.231Z,7.10
2018-03-08T01:51:17.758Z,7.10
2018-03-08T01:53:45.838Z,7.10
2018-03-08T01:56:13.390Z,7.00
2018-03-08T01:58:40.933Z,6.90
2018-03-08T02:01:09.244Z,6.60
2018-03-08T02:03:36.761Z,6.60
2018-03-08T02:06:04.264Z,6.70
2018-03-08T02:08:31.789Z,6.80
2018-03-08T02:11:00.089Z,6.80
2018-03-08T02:13:27.971Z,6.70
2018-03-08T02:15:55.737Z,6.70
2018-03-08T02:18:23.292Z,6.70
2018-03-08T02:20:50.867Z,6.60
2018-03-08T02:23:18.395Z,6.60
2018-03-08T02:25:46.695Z,6.30
2018-03-08T02:28:15.813Z,6.30
2018-03-08T02:30:43.350Z,6.30
2018-03-08T02:33:11.447Z,6.30
2018-03-08T02:35:39.966Z,6.40
2018-03-08T02:38:08.254Z,6.20
2018-03-08T02:40:44.193Z,6.30
2018-03-08T02:43:11.762Z,6.30
2018-03-08T02:45:40.773Z,6.20
2018-03-08T02:48:14.629Z,6.20
2018-03-08T02:50:42.168Z,6.10
2018-03-08T02:53:09.706Z,6.20
2018-03-08T03:08:37.268Z,6.10
2018-03-08T03:11:04.777Z,5.70
2018-03-08T03:13:33.676Z,5.90
2018-03-08T03:16:01.334Z,5.90
2018-03-08T03:18:29.288Z,6.10
2018-03-08T03:20:56.809Z,6.40
2018-03-08T03:23:25.237Z,6.40
2018-03-08T03:25:52.743Z,6.40
2018-03-08T03:28:20.257Z,6.40
2018-03-08T03:30:47.893Z,6.50
2018-03-08T03:33:15.480Z,6.50
2018-03-08T03:35:43.059Z,6.40
2018-03-08T03:38:11.783Z,6.50
2018-03-08T03:40:40.362Z,6.40
2018-03-08T03:43:08.543Z,6.30
2018-03-08T03:45:36.524Z,6.40
2018-03-08T03:48:04.041Z,6.30
2018-03-08T03:50:32.339Z,6.20
2018-03-08T03:52:59.847Z,6.20
2018-03-08T03:55:27.464Z,6.20
2018-03-08T03:57:54.990Z,6.10
2018-03-08T04:00:27.444Z,6.10
2018-03-08T04:02:54.989Z,6.00
2018-03-08T04:05:22.774Z,6.00
2018-03-08T04:07:50.314Z,6.10
2018-03-08T04:10:17.842Z,6.00
2018-03-08T04:12:45.338Z,5.90
2018-03-08T04:15:20.921Z,5.90
2018-03-08T04:17:49.653Z,5.90
2018-03-08T04:20:17.238Z,5.90
2018-03-08T04:22:45.612Z,5.90
2018-03-08T04:25:13.291Z,6.00
2018-03-08T04:27:44.913Z,6.10
2018-03-08T04:30:12.450Z,6.00
2018-03-08T04:32:39.956Z,5.80
2018-03-08T04:35:07.465Z,5.60
2018-03-08T04:37:34.986Z,5.40
2018-03-08T04:40:06.445Z,5.30
2018-03-08T04:42:34.736Z,5.10
2018-03-08T04:45:02.247Z,5.10
2018-03-08T04:47:30.338Z,5.00
2018-03-08T04:49:57.870Z,5.00
2018-03-08T04:52:25.380Z,4.80
2018-03-08T04:54:53.662Z,4.80
2018-03-08T04:57:22.071Z,4.90
2018-03-08T04:59:50.872Z,4.80
2018-03-08T05:02:26.501Z,4.90
2018-03-08T05:04:54.237Z,4.90
2018-03-08T05:07:23.267Z,5.00
2018-03-08T05:09:50.798Z,4.90
2018-03-08T05:12:19.094Z,5.00
2018-03-08T05:14:46.607Z,5.00
2018-03-08T05:17:14.632Z,5.10
2018-03-08T05:19:42.140Z,5.00
2018-03-08T05:22:09.664Z,5.00
2018-03-08T05:24:37.176Z,5.00
2018-03-08T05:27:05.466Z,5.20
2018-03-08T05:29:36.341Z,5.20
2018-03-08T05:32:03.880Z,5.30
2018-03-08T05:34:35.544Z,5.30
2018-03-08T05:37:03.077Z,5.30
2018-03-08T05:39:30.595Z,5.40
2018-03-08T05:41:58.121Z,5.40
2018-03-08T05:44:25.718Z,5.40
2018-03-08T05:46:53.311Z,5.40
2018-03-08T05:49:21.614Z,5.30
2018-03-08T05:51:49.283Z,5.30
2018-03-08T05:54:17.038Z,5.40
2018-03-08T05:56:46.274Z,5.40
2018-03-08T06:12:15.456Z,5.20
2018-03-08T06:14:43.834Z,5.10
2018-03-08T06:17:11.974Z,5.30
2018-03-08T06:19:39.508Z,5.50
2018-03-08T06:22:12.176Z,5.80
2018-03-08T06:24:40.502Z,5.90
2018-03-08T06:40:13.063Z,5.90
2018-03-08T06:42:41.257Z,5.50
2018-03-08T06:45:08.775Z,5.70
2018-03-08T06:47:38.127Z,5.90
2018-03-08T06:50:06.595Z,5.90
2018-03-08T06:52:34.209Z,6.00
2018-03-08T06:55:02.625Z,6.20
2018-03-08T06:57:30.136Z,6.20
2018-03-08T06:59:57.753Z,6.30
2018-03-08T07:02:25.301Z,6.30
2018-03-08T07:04:52.851Z,6.40
2018-03-08T07:07:20.370Z,6.50
2018-03-08T07:09:47.950Z,6.50
2018-03-08T07:12:15.616Z,6.60
2018-03-08T07:14:43.901Z,6.70
2018-03-08T07:17:12.210Z,6.60
2018-03-08T07:19:39.725Z,6.60
2018-03-08T07:22:08.037Z,6.70
2018-03-08T07:24:35.807Z,6.70
2018-03-08T07:27:03.347Z,6.80
2018-03-08T07:42:41.976Z,6.90
2018-03-08T07:45:09.501Z,6.70
2018-03-08T07:47:41.846Z,8.10
2018-03-08T07:50:09.782Z,8.10
2018-03-08T07:52:37.929Z,8.60
2018-03-08T07:55:06.882Z,8.70
2018-03-08T07:57:35.138Z,9.40
2018-03-08T08:00:02.669Z,10.00
2018-03-08T08:02:30.204Z,10.20
2018-03-08T08:05:10.593Z,11.00
2018-03-08T08:07:50.870Z,11.00
2018-03-08T08:10:18.512Z,12.10
2018-03-08T08:12:46.088Z,12.50
2018-03-08T08:15:14.612Z,12.70
2018-03-08T08:17:42.213Z,12.60
2018-03-08T08:20:10.588Z,12.20
2018-03-08T08:22:38.826Z,12.40
2018-03-08T08:25:07.648Z,12.90
2018-03-08T08:27:35.200Z,13.60
2018-03-08T08:30:03.098Z,13.60
2018-03-08T08:32:30.609Z,12.90
2018-03-08T08:34:58.779Z,13.20
2018-03-08T08:37:26.326Z,13.20
2018-03-08T08:39:54.692Z,12.90
2018-03-08T08:42:22.266Z,13.00
2018-03-08T08:44:49.886Z,13.80
2018-03-08T08:47:17.436Z,14.40
2018-03-08T08:49:44.963Z,14.30
2018-03-08T08:52:13.392Z,12.60
2018-03-08T08:54:40.902Z,12.50
2018-03-08T08:57:09.199Z,13.00
2018-03-08T08:59:37.485Z,13.20
2018-03-08T09:02:08.858Z,13.20
2018-03-08T09:04:36.408Z,12.40
2018-03-08T09:07:04.693Z,12.90
2018-03-08T09:09:32.229Z,13.70
2018-03-08T09:11:59.781Z,14.60
2018-03-08T09:14:31.910Z,15.60
2018-03-08T09:16:59.460Z,15.60
2018-03-08T09:19:26.992Z,16.00
2018-03-08T09:21:54.524Z,16.50
2018-03-08T09:24:22.829Z,16.70
2018-03-08T09:26:55.505Z,16.60
2018-03-08T09:29:23.476Z,16.90
2018-03-08T09:31:51.029Z,16.60
2018-03-08T09:34:18.572Z,17.20
2018-03-08T09:36:50.439Z,15.70
2018-03-08T09:39:18.007Z,15.60
2018-03-08T09:41:45.565Z,14.80
2018-03-08T09:44:13.098Z,14.00
2018-03-08T09:46:41.723Z,14.30
2018-03-08T09:49:09.894Z,14.30
2018-03-08T09:51:37.424Z,14.60
2018-03-08T09:54:06.570Z,15.10
2018-03-08T09:56:34.439Z,15.10
2018-03-08T09:59:02.037Z,15.00
2018-03-08T10:01:29.529Z,16.00
2018-03-08T10:03:57.086Z,17.00
2018-03-08T10:06:24.617Z,17.80
2018-03-08T10:08:53.199Z,18.00
2018-03-08T10:21:07.361Z,16.10
2018-03-08T10:23:34.899Z,16.00
2018-03-08T10:26:02.426Z,16.60
2018-03-08T10:28:31.173Z,17.30
2018-03-08T10:30:58.708Z,16.60
2018-03-08T10:33:26.243Z,16.30
2018-03-08T10:35:54.634Z,16.00
2018-03-08T10:38:22.922Z,15.30
2018-03-08T10:40:51.127Z,15.30
2018-03-08T10:43:18.680Z,15.60
2018-03-08T10:45:46.207Z,16.10
2018-03-08T10:48:15.665Z,16.80
2018-03-08T10:50:43.232Z,16.70
2018-03-08T10:53:10.762Z,16.90
2018-03-08T10:55:38.312Z,16.70
2018-03-08T10:58:05.841Z,16.50
2018-03-08T11:00:43.562Z,16.60
2018-03-08T11:03:11.974Z,16.60
2018-03-08T11:05:45.298Z,16.60
2018-03-08T11:09:41.733Z,14.60
2018-03-08T11:12:10.475Z,14.70
2018-03-08T11:14:38.032Z,15.20
2018-03-08T11:17:05.816Z,16.00
2018-03-08T11:19:33.373Z,16.80
2018-03-08T11:22:00.889Z,17.00
2018-03-08T11:24:29.318Z,16.90
2018-03-08T11:26:56.927Z,16.90
2018-03-08T11:29:25.249Z,16.50
2018-03-08T11:31:57.312Z,16.50
2018-03-08T11:34:29.732Z,16.40
2018-03-08T11:36:57.350Z,15.90
2018-03-08T11:39:25.804Z,16.10
2018-03-08T11:41:53.342Z,15.70
2018-03-08T11:44:20.921Z,15.20
2018-03-08T11:46:49.230Z,14.50
2018-03-08T11:49:17.297Z,14.50
2018-03-08T11:51:48.764Z,13.80
2018-03-08T11:54:16.350Z,13.50
2018-03-08T11:56:43.889Z,13.40
2018-03-08T11:59:11.414Z,13.20
2018-03-08T12:01:38.945Z,13.50
2018-03-08T12:04:11.050Z,14.50
2018-03-08T12:06:43.024Z,14.20
2018-03-08T12:09:18.386Z,14.30
2018-03-08T12:11:46.361Z,13.80
2018-03-08T12:14:13.897Z,14.40
2018-03-08T12:16:45.407Z,14.70
2018-03-08T12:19:14.018Z,13.60
2018-03-08T12:21:45.557Z,13.60
2018-03-08T12:24:13.853Z,13.00
2018-03-08T12:26:41.374Z,12.90
2018-03-08T12:29:09.240Z,13.50
2018-03-08T12:31:38.668Z,14.00
2018-03-08T12:34:06.980Z,12.80
2018-03-08T12:36:35.163Z,12.80
2018-03-08T12:39:11.508Z,12.60
2018-03-08T12:41:39.648Z,12.30
2018-03-08T12:44:09.288Z,11.70
2018-03-08T12:46:36.821Z,11.70
2018-03-08T12:49:05.106Z,11.20
2018-03-08T12:51:34.915Z,11.00
2018-03-08T12:54:03.212Z,11.10
2018-03-08T12:56:30.740Z,11.10
2018-03-08T12:58:59.841Z,11.70
2018-03-08T13:01:32.629Z,11.80
2018-03-08T13:04:01.804Z,11.90
2018-03-08T13:06:29.323Z,11.90
2018-03-08T13:08:56.845Z,11.90
2018-03-08T13:11:25.995Z,11.60
2018-03-08T13:13:54.213Z,11.60
2018-03-08T13:16:22.802Z,11.00
2018-03-08T13:18:55.000Z,11.00
2018-03-08T13:21:22.579Z,11.00
2018-03-08T13:23:50.113Z,11.10
2018-03-08T13:26:17.630Z,11.10
2018-03-08T13:28:45.935Z,10.80
2018-03-08T13:31:14.054Z,10.80
2018-03-08T13:33:41.588Z,10.70
2018-03-08T13:36:13.596Z,10.80
2018-03-08T13:38:41.143Z,11.00
2018-03-08T13:41:09.519Z,11.10
2018-03-08T13:43:37.075Z,11.30
2018-03-08T13:46:04.587Z,11.80
2018-03-08T13:48:37.992Z,14.10
2018-03-08T13:51:06.151Z,14.10
2018-03-08T13:53:33.690Z,14.50
2018-03-08T13:56:01.271Z,14.40
2018-03-08T13:58:29.551Z,12.90
2018-03-08T14:00:58.137Z,12.50
2018-03-08T14:03:26.408Z,12.70
2018-03-08T14:05:54.699Z,13.40
2018-03-08T14:08:23.181Z,13.40
2018-03-08T14:10:50.917Z,12.80
2018-03-08T14:13:19.449Z,12.30
2018-03-08T14:28:47.037Z,12.30
2018-03-08T14:31:15.653Z,10.80
2018-03-08T14:33:50.172Z,10.90
2018-03-08T14:36:17.666Z,10.70
2018-03-08T14:38:45.454Z,10.70
2018-03-08T14:41:12.978Z,10.70
2018-03-08T14:43:40.528Z,10.60
2018-03-08T14:46:09.144Z,10.50
2018-03-08T14:48:37.160Z,10.40
2018-03-08T14:51:09.110Z,10.50
2018-03-08T14:53:41.861Z,10.50
2018-03-08T14:56:09.392Z,10.50
2018-03-08T14:58:37.632Z,10.40
2018-03-08T15:01:06.919Z,10.40
2018-03-08T15:03:34.456Z,10.40
2018-03-08T15:06:06.529Z,10.30
2018-03-08T15:08:34.059Z,10.20
2018-03-08T15:11:07.219Z,10.20
2018-03-08T15:13:35.509Z,10.10
2018-03-08T15:16:03.822Z,10.10
2018-03-08T15:18:31.389Z,10.00
2018-03-08T15:20:58.913Z,9.90
2018-03-08T15:23:26.457Z,9.90
2018-03-08T15:25:54.781Z,9.90
2018-03-08T15:28:22.403Z,9.90
2018-03-08T15:30:53.510Z,9.80
2018-03-08T15:33:21.031Z,9.80
2018-03-08T15:35:48.550Z,9.80
2018-03-08T15:38:20.889Z,9.80
2018-03-08T15:40:48.421Z,9.80
2018-03-08T15:43:16.960Z,9.90
2018-03-08T15:45:44.783Z,10.00
2018-03-08T15:48:15.640Z,9.90
2018-03-08T15:50:43.201Z,9.80
2018-03-08T15:53:13.429Z,9.70
2018-03-08T15:55:40.997Z,9.50
2018-03-08T15:58:08.525Z,9.50
2018-03-08T16:00:36.746Z,9.50
2018-03-08T16:03:05.586Z,9.50
2018-03-08T16:05:33.115Z,9.40
2018-03-08T16:11:15.864Z,9.30
2018-03-08T16:13:44.387Z,9.20
2018-03-08T16:16:15.519Z,9.10
2018-03-08T16:18:47.653Z,9.00
2018-03-08T16:21:15.200Z,9.00
2018-03-08T16:23:43.531Z,8.90
2018-03-08T16:26:11.139Z,8.90
2018-03-08T16:28:39.665Z,8.80
2018-03-08T16:31:07.630Z,8.80
2018-03-08T16:33:35.165Z,8.70
2018-03-08T16:36:03.795Z,8.80
2018-03-08T16:38:32.333Z,9.00
2018-03-08T16:40:59.884Z,8.90
2018-03-08T16:43:27.445Z,8.90
2018-03-08T16:45:56.479Z,8.90
2018-03-08T16:48:28.109Z,8.90
2018-03-08T16:50:55.649Z,8.90
2018-03-08T16:53:23.957Z,8.80
2018-03-08T16:55:56.208Z,8.80
2018-03-08T16:58:23.736Z,8.80
2018-03-08T17:00:51.308Z,8.80
2018-03-08T17:03:19.626Z,8.70
2018-03-08T17:05:47.622Z,8.70
2018-03-08T17:08:20.632Z,8.50
2018-03-08T17:10:48.155Z,8.40
2018-03-08T17:13:15.701Z,8.40
2018-03-08T17:15:43.256Z,8.40
2018-03-08T17:18:11.420Z,8.40
2018-03-08T17:20:38.978Z,8.40
2018-03-08T17:23:06.665Z,8.30
2018-03-08T17:25:34.168Z,8.20
2018-03-08T17:28:02.414Z,8.20
2018-03-08T17:30:30.273Z,8.20
2018-03-08T17:46:04.074Z,8.30
2018-03-08T17:48:32.183Z,8.00
2018-03-08T17:51:00.511Z,8.10
2018-03-08T17:53:28.029Z,8.10
2018-03-08T17:55:56.337Z,8.20
2018-03-08T17:58:23.882Z,8.20
2018-03-08T18:00:51.419Z,8.20
2018-03-08T18:03:20.709Z,8.20
2018-03-08T18:05:48.235Z,8.20
2018-03-08T18:08:17.887Z,8.20
2018-03-08T18:10:45.434Z,8.10
2018-03-08T18:13:12.938Z,8.10
2018-03-08T18:15:40.502Z,8.10
2018-03-08T18:18:10.889Z,8.10
2018-03-08T18:20:38.906Z,8.00
2018-03-08T18:23:11.284Z,8.00
2018-03-08T18:25:38.874Z,7.90
2018-03-08T18:28:07.070Z,7.90
2018-03-08T18:40:20.470Z,7.70
2018-03-08T18:42:49.460Z,7.80
2018-03-08T18:45:18.097Z,7.80
2018-03-08T18:47:49.598Z,7.80
2018-03-08T18:50:17.892Z,7.80
2018-03-08T18:52:50.226Z,7.80
2018-03-08T18:55:18.306Z,7.70
2018-03-08T18:57:45.874Z,7.70
2018-03-08T19:00:17.370Z,7.60
2018-03-08T19:02:44.903Z,7.70
2018-03-08T19:05:13.221Z,7.60
2018-03-08T19:07:41.049Z,7.60
2018-03-08T19:10:09.387Z,7.90
2018-03-08T19:12:36.894Z,7.90
2018-03-08T19:15:05.243Z,7.40
2018-03-08T19:17:33.531Z,7.40
2018-03-08T19:20:01.846Z,7.00
2018-03-08T19:22:29.373Z,7.00
2018-03-08T19:25:02.510Z,7.00
2018-03-08T19:27:30.098Z,7.00
2018-03-08T19:29:57.705Z,7.00
2018-03-08T19:32:25.753Z,6.90
2018-03-08T19:34:54.961Z,6.90
2018-03-08T19:37:24.339Z,6.80
2018-03-08T19:49:37.859Z,6.80
2018-03-08T19:52:10.649Z,6.00
2018-03-08T19:54:46.783Z,6.00
2018-03-08T19:57:14.326Z,6.00
2018-03-08T19:59:41.871Z,6.10
2018-03-08T20:02:10.233Z,6.10
2018-03-08T20:04:37.801Z,6.00
2018-03-08T20:07:10.327Z,5.90
2018-03-08T20:09:38.492Z,5.90
2018-03-08T20:12:06.006Z,5.80
2018-03-08T20:14:33.547Z,5.80
2018-03-08T20:17:01.709Z,5.80
2018-03-08T20:19:34.905Z,5.80
2018-03-08T20:22:03.255Z,5.80
2018-03-08T20:24:32.325Z,5.80
2018-03-08T20:26:59.870Z,5.80
2018-03-08T20:29:27.564Z,5.90
2018-03-08T20:31:55.891Z,5.90
2018-03-08T20:34:24.124Z,6.00
2018-03-08T20:36:52.464Z,6.00
2018-03-08T20:39:21.663Z,6.10
2018-03-08T20:41:49.205Z,6.10
2018-03-08T20:44:16.769Z,6.20
2018-03-08T20:46:48.219Z,6.20
2018-03-08T20:49:15.753Z,6.20
2018-03-08T20:51:44.671Z,6.40
2018-03-08T20:54:12.232Z,6.40
2018-03-08T20:56:40.083Z,6.50
2018-03-08T20:59:16.268Z,6.50
2018-03-08T21:01:44.741Z,6.50
2018-03-08T21:04:12.422Z,6.50
2018-03-08T21:06:40.027Z,6.40
2018-03-08T21:09:11.500Z,6.40
2018-03-08T21:11:39.070Z,6.30
2018-03-08T21:14:07.353Z,6.20
2018-03-08T21:16:34.940Z,6.20
2018-03-08T21:19:02.905Z,6.10
2018-03-08T21:21:30.493Z,6.10
2018-03-08T21:23:59.208Z,6.10
2018-03-08T21:26:27.843Z,6.20
2018-03-08T21:28:55.492Z,6.20
2018-03-08T21:31:24.569Z,6.30
2018-03-08T21:33:53.196Z,6.40
2018-03-08T21:46:09.757Z,6.30
2018-03-08T21:48:37.305Z,5.90
2018-03-08T21:51:04.846Z,6.00
2018-03-08T22:06:32.409Z,6.10
2018-03-08T22:08:59.939Z,5.60
2018-03-08T22:11:28.301Z,6.00
2018-03-08T22:14:00.077Z,5.90
2018-03-08T22:16:33.824Z,6.30
2018-03-08T22:19:01.765Z,6.20
2018-03-08T22:21:29.282Z,6.30
2018-03-08T22:23:56.816Z,6.30
2018-03-08T22:26:24.875Z,6.30
2018-03-08T22:28:52.394Z,6.50
2018-03-08T22:31:20.724Z,6.50
2018-03-08T22:46:48.300Z,6.50
2018-03-08T22:49:15.829Z,6.00
2018-03-08T22:51:44.111Z,6.10
2018-03-08T22:54:11.637Z,6.20
2018-03-08T22:56:39.177Z,6.40
2018-03-08T22:59:06.670Z,6.50
2018-03-08T23:04:54.006Z,6.60
2018-03-08T23:07:21.695Z,6.60
2018-03-08T23:09:49.205Z,6.60
2018-03-08T23:12:18.522Z,6.60
2018-03-08T23:14:47.231Z,6.50
2018-03-08T23:30:18.788Z,6.50
2018-03-08T23:32:46.315Z,6.00
2018-03-08T23:35:13.870Z,6.10
2018-03-08T23:37:42.736Z,6.20
2018-03-08T23:40:10.314Z,6.20
2018-03-08T23:42:42.672Z,6.30
2018-03-08T23:45:10.183Z,6.30
2018-03-08T23:47:41.747Z,6.20
2018-03-08T23:50:09.275Z,6.10
2018-03-08T23:52:37.258Z,6.00
2018-03-08T23:55:05.650Z,6.10
2018-03-08T23:57:37.438Z,6.00
